createdAt,value
2023-04-27T00:00:24.641Z,102134.63
2023-04-27T00:05:29.547Z,102137.78
2023-04-27T00:10:34.001Z,102141.69
2023-04-27T00:15:37.090Z,102153.28
2023-04-27T00:20:40.206Z,102142.22
2023-04-27T00:25:44.655Z,102153.94
2023-04-27T00:30:48.884Z,102149.00
2023-04-27T00:35:51.994Z,102139.53
2023-04-27T00:41:03.429Z,102143.81
2023-04-27T00:46:06.813Z,102146.91
2023-04-27T00:51:10.215Z,102138.47
2023-04-27T00:56:14.754Z,102135.50
2023-04-27T01:01:18.054Z,102124.56
2023-04-27T01:06:22.294Z,102112.34
2023-04-27T01:11:26.966Z,102105.31
2023-04-27T01:16:29.996Z,102117.25
2023-04-27T01:21:33.143Z,102125.03
2023-04-27T01:26:37.632Z,102129.84
2023-04-27T01:31:40.995Z,102105.28
2023-04-27T01:36:44.093Z,102102.69
2023-04-27T01:41:48.645Z,102111.13
2023-04-27T01:46:52.248Z,102110.75
2023-04-27T01:51:55.600Z,102101.63
2023-04-27T01:57:00.214Z,102106.41
2023-04-27T02:02:03.760Z,102099.38
2023-04-27T02:07:07.060Z,102104.69
2023-04-27T02:12:12.442Z,102104.69
2023-04-27T02:17:15.617Z,102106.91
2023-04-27T02:22:18.660Z,102095.84
2023-04-27T02:27:23.100Z,102068.78
2023-04-27T02:32:27.289Z,102091.94
2023-04-27T02:37:30.445Z,102071.13
2023-04-27T02:42:34.970Z,102069.94
2023-04-27T02:47:39.369Z,102084.25
2023-04-27T02:52:42.567Z,102089.16
2023-04-27T02:57:47.187Z,102091.47
2023-04-27T03:02:51.084Z,102058.03
2023-04-27T03:07:54.346Z,102093.25
2023-04-27T03:12:58.735Z,102095.56
2023-04-27T03:18:01.995Z,102090.09
2023-04-27T03:23:05.080Z,102094.88
2023-04-27T03:28:09.463Z,102098.41
2023-04-27T03:33:14.391Z,102100.56
2023-04-27T03:38:17.919Z,102096.28
2023-04-27T03:43:22.778Z,102107.03
2023-04-27T03:48:25.843Z,102088.03
2023-04-27T03:53:31.882Z,102104.78
2023-04-27T03:58:37.130Z,102093.44
2023-04-27T04:03:55.517Z,102121.63
2023-04-27T04:08:59.362Z,102118.34
2023-04-27T04:14:03.917Z,102125.31
2023-04-27T04:19:07.235Z,102123.81
2023-04-27T04:24:11.203Z,102117.25
2023-04-27T04:29:17.273Z,102124.56
2023-04-27T04:34:20.865Z,102124.69
2023-04-27T04:39:24.372Z,102134.72
2023-04-27T04:44:28.912Z,102141.25
2023-04-27T04:49:32.345Z,102130.09
2023-04-27T04:54:35.654Z,102150.75
2023-04-27T04:59:40.419Z,102117.91
2023-04-27T05:04:43.675Z,102142.69
2023-04-27T05:09:46.728Z,102136.22
2023-04-27T05:14:52.990Z,102142.78
2023-04-27T05:19:56.183Z,102148.16
2023-04-27T05:24:59.461Z,102152.34
2023-04-27T05:30:04.144Z,102155.13
2023-04-27T05:35:07.516Z,102149.06
2023-04-27T05:40:11.089Z,102135.16
2023-04-27T05:45:16.049Z,102150.25
2023-04-27T05:50:19.434Z,102151.56
2023-04-27T05:55:22.767Z,102158.22
2023-04-27T06:00:27.219Z,102156.41
2023-04-27T06:05:30.557Z,102160.47
2023-04-27T06:10:33.947Z,102157.06
2023-04-27T06:15:38.430Z,102161.97
2023-04-27T06:20:42.179Z,102164.03
2023-04-27T06:25:45.506Z,102161.31
2023-04-27T06:30:50.046Z,102162.44
2023-04-27T06:35:53.084Z,102160.09
2023-04-27T06:40:57.009Z,102148.59
2023-04-27T06:46:01.563Z,102149.41
2023-04-27T06:51:05.140Z,102145.06
2023-04-27T06:56:12.257Z,102154.34
2023-04-27T07:01:16.901Z,102158.16
2023-04-27T07:06:20.005Z,102158.03
2023-04-27T07:11:23.154Z,102158.34
2023-04-27T07:16:27.696Z,102156.03
2023-04-27T07:21:30.943Z,102145.88
2023-04-27T07:26:33.966Z,102138.38
2023-04-27T07:31:38.606Z,102147.22
2023-04-27T07:36:41.776Z,102135.59
2023-04-27T07:41:44.885Z,102140.47
2023-04-27T07:46:50.194Z,102144.41
2023-04-27T07:51:55.614Z,102156.75
2023-04-27T07:56:59.195Z,102149.72
2023-04-27T08:02:18.562Z,102147.22
2023-04-27T08:07:22.642Z,102156.66
2023-04-27T08:12:25.869Z,102150.53
2023-04-27T08:17:30.482Z,102150.38
2023-04-27T08:22:34.200Z,102137.56
2023-04-27T08:27:38.382Z,102132.69
2023-04-27T08:32:42.913Z,102124.81
2023-04-27T08:37:45.928Z,102132.72
2023-04-27T08:42:56.297Z,102115.78
2023-04-27T08:48:01.320Z,102127.91
2023-04-27T08:53:06.718Z,102114.13
2023-04-27T08:58:09.947Z,102124.41
2023-04-27T09:03:24.457Z,102119.28
2023-04-27T09:08:27.789Z,102118.03
2023-04-27T09:13:36.612Z,102121.72
2023-04-27T09:18:43.693Z,102111.59
2023-04-27T09:23:47.137Z,102128.03
2023-04-27T09:28:51.826Z,102112.31
2023-04-27T09:33:57.586Z,102110.91
2023-04-27T09:39:05.322Z,102091.72
2023-04-27T09:44:10.110Z,102088.66
2023-04-27T09:49:18.883Z,102103.03
2023-04-27T09:54:26.171Z,102085.72
2023-04-27T10:00:07.783Z,102108.06
2023-04-27T10:05:29.889Z,102109.31
2023-04-27T10:10:43.957Z,102095.75
2023-04-27T10:15:47.180Z,102113.34
2023-04-27T10:20:52.792Z,102099.94
2023-04-27T10:25:57.349Z,102096.13
2023-04-27T10:31:11.990Z,102096.97
2023-04-27T10:36:17.247Z,102097.09
2023-04-27T10:41:20.806Z,102085.69
2023-04-27T10:46:23.963Z,102094.56
2023-04-27T10:51:29.403Z,102081.44
2023-04-27T10:56:33.929Z,102062.84
2023-04-27T11:01:38.077Z,102056.00
2023-04-27T11:06:46.925Z,102047.66
2023-04-27T11:11:50.112Z,102052.63
2023-04-27T11:16:53.292Z,102042.75
2023-04-27T11:22:05.174Z,102033.44
2023-04-27T11:27:08.181Z,102042.72
2023-04-27T11:32:20.944Z,102026.56
2023-04-27T11:37:27.982Z,102040.78
2023-04-27T11:42:31.602Z,102043.59
2023-04-27T11:47:35.678Z,102026.34
2023-04-27T11:52:42.608Z,102032.84
2023-04-27T11:57:46.077Z,102030.81
2023-04-27T12:02:49.785Z,102022.41
2023-04-27T12:07:55.025Z,102010.34
2023-04-27T12:12:58.184Z,102002.03
2023-04-27T12:18:01.641Z,102005.63
2023-04-27T12:23:06.217Z,102009.22
2023-04-27T12:28:09.226Z,101992.22
2023-04-27T12:33:12.395Z,101993.72
2023-04-27T12:38:16.989Z,101982.28
2023-04-27T12:43:20.102Z,101981.47
2023-04-27T12:48:23.686Z,101958.38
2023-04-27T12:53:29.833Z,101982.78
2023-04-27T12:58:33.068Z,101971.63
2023-04-27T13:03:36.419Z,101974.00
2023-04-27T13:08:42.189Z,101968.69
2023-04-27T13:13:46.046Z,101961.63
2023-04-27T13:18:50.642Z,101942.34
2023-04-27T13:23:55.125Z,101945.31
2023-04-27T13:28:58.406Z,101943.00
2023-04-27T13:34:04.294Z,101924.47
2023-04-27T13:39:08.934Z,101931.56
2023-04-27T13:44:12.197Z,101932.78
2023-04-27T13:49:15.583Z,101928.34
2023-04-27T13:54:20.158Z,101909.91
2023-04-27T13:59:26.328Z,101916.53
2023-04-27T14:04:29.743Z,101901.56
2023-04-27T14:09:34.477Z,101895.59
2023-04-27T14:14:37.916Z,101880.91
2023-04-27T14:19:41.737Z,101880.63
2023-04-27T14:24:46.629Z,101876.31
2023-04-27T14:29:49.986Z,101861.97
2023-04-27T14:34:53.504Z,101856.81
2023-04-27T14:39:58.685Z,101858.53
2023-04-27T14:45:02.179Z,101862.19
2023-04-27T14:50:06.421Z,101859.53
2023-04-27T14:55:13.471Z,101848.78
2023-04-27T15:00:19.344Z,101849.41
2023-04-27T15:05:22.800Z,101835.38
2023-04-27T15:10:27.955Z,101833.16
2023-04-27T15:15:31.458Z,101823.47
2023-04-27T15:20:34.732Z,101842.00
2023-04-27T15:25:39.231Z,101846.00
2023-04-27T15:30:42.756Z,101840.19
2023-04-27T15:35:45.947Z,101832.06
2023-04-27T15:40:50.935Z,101826.88
2023-04-27T15:45:55.240Z,101815.00
2023-04-27T15:50:58.308Z,101787.66
2023-04-27T15:56:02.849Z,101792.81
2023-04-27T16:01:06.147Z,101785.53
2023-04-27T16:06:09.786Z,101770.38
2023-04-27T16:11:14.477Z,101772.34
2023-04-27T16:16:17.989Z,101765.41
2023-04-27T16:21:21.548Z,101759.88
2023-04-27T16:26:27.826Z,101754.16
2023-04-27T16:31:31.570Z,101741.13
2023-04-27T16:36:34.898Z,101732.78
2023-04-27T16:41:39.257Z,101720.78
2023-04-27T16:46:42.571Z,101725.69
2023-04-27T16:51:46.134Z,101719.06
2023-04-27T16:56:52.690Z,101703.38
2023-04-27T17:01:59.974Z,101713.59
2023-04-27T17:07:07.353Z,101718.03
2023-04-27T17:12:13.803Z,101720.22
2023-04-27T17:17:16.974Z,101728.81
2023-04-27T17:22:20.266Z,101713.44
2023-04-27T17:27:28.834Z,101711.47
2023-04-27T17:32:34.762Z,101703.13
2023-04-27T17:37:38.424Z,101701.50
2023-04-27T17:42:43.464Z,101701.94
2023-04-27T17:47:47.192Z,101695.00
2023-04-27T17:52:51.242Z,101693.41
2023-04-27T17:57:55.855Z,101665.28
2023-04-27T18:02:59.193Z,101698.06
2023-04-27T18:08:02.696Z,101702.13
2023-04-27T18:13:07.302Z,101694.63
2023-04-27T18:18:11.001Z,101691.19
2023-04-27T18:23:14.537Z,101680.09
2023-04-27T18:28:19.086Z,101687.91
2023-04-27T18:33:22.867Z,101682.16
2023-04-27T18:38:26.068Z,101700.53
2023-04-27T18:43:30.721Z,101696.75
2023-04-27T18:48:33.928Z,101677.88
2023-04-27T18:53:37.554Z,101676.72
2023-04-27T18:58:42.000Z,101678.69
2023-04-27T19:03:45.290Z,101660.75
2023-04-27T19:08:49.746Z,101653.06
2023-04-27T19:13:57.471Z,101669.06
2023-04-27T19:19:01.459Z,101667.06
2023-04-27T19:24:05.125Z,101675.25
2023-04-27T19:29:09.651Z,101660.56
2023-04-27T19:34:12.921Z,101650.91
2023-04-27T19:39:16.156Z,101665.00
2023-04-27T19:44:21.927Z,101666.56
2023-04-27T19:49:25.204Z,101646.34
2023-04-27T19:54:28.415Z,101654.88
2023-04-27T19:59:33.323Z,101664.25
2023-04-27T20:04:36.840Z,101661.19
2023-04-27T20:09:43.326Z,101653.47
2023-04-27T20:14:49.391Z,101655.75
2023-04-27T20:19:56.536Z,101659.06
2023-04-27T20:25:00.281Z,101659.63
2023-04-27T20:30:05.519Z,101645.56
2023-04-27T20:35:11.278Z,101645.28
2023-04-27T20:40:17.730Z,101637.19
2023-04-27T20:45:23.131Z,101614.75
2023-04-27T20:50:26.551Z,101597.47
2023-04-27T20:55:29.825Z,101580.88
2023-04-27T21:00:35.969Z,101580.28
2023-04-27T21:05:39.127Z,101557.84
2023-04-27T21:10:42.528Z,101553.41
2023-04-27T21:15:47.071Z,101556.75
2023-04-27T21:20:51.146Z,101545.41
2023-04-27T21:25:54.613Z,101544.28
2023-04-27T21:30:59.115Z,101517.56
2023-04-27T21:36:03.869Z,101516.84
2023-04-27T21:41:06.997Z,101513.06
2023-04-27T21:46:11.661Z,101503.97
2023-04-27T21:51:14.901Z,101501.16
2023-04-27T21:56:18.032Z,101492.97
2023-04-27T22:01:23.683Z,101497.47
2023-04-27T22:06:27.624Z,101500.09
2023-04-27T22:11:31.189Z,101499.13
2023-04-27T22:16:36.464Z,101488.63
2023-04-27T22:21:39.669Z,101490.34
2023-04-27T22:26:43.703Z,101474.44
2023-04-27T22:31:48.702Z,101441.44
2023-04-27T22:36:52.242Z,101456.81
2023-04-27T22:41:55.415Z,101438.34
2023-04-27T22:47:00.999Z,101430.41
2023-04-27T22:52:04.221Z,101421.41
2023-04-27T22:57:07.357Z,101414.81
2023-04-27T23:02:11.806Z,101431.78
2023-04-27T23:07:18.139Z,101436.88
2023-04-27T23:12:22.190Z,101399.63
2023-04-27T23:17:30.901Z,101414.00
2023-04-27T23:22:34.315Z,101410.28
2023-04-27T23:27:37.406Z,101403.41
2023-04-27T23:32:42.167Z,101382.88
2023-04-27T23:37:45.372Z,101389.88
2023-04-27T23:42:50.978Z,101386.38
2023-04-27T23:47:58.183Z,101408.44
2023-04-27T23:53:03.483Z,101396.34
2023-04-27T23:58:06.680Z,101391.00
